<?xml version="1.0" encoding="UTF-8" standalone="no" ?>
<gpx version="1.1" creator="Visorando" xmlns:xsi="http://www.w3.org/2001/XMLSchema-instance" xmlns="http://www.topografix.com/GPX/1/1" xsi:schemaLocation="http://www.topografix.com/GPX/1/1 http://www.topografix.com/GPX/1/1/gpx.xsd">
<metadata>
  <name>Le chaînon au-dessus de Zugarramudi</name>
  <link href="https://www.visorando.com/randonnee-le-chainon-au-dessus-de-zugarramudi/">
    <text>https://www.visorando.com/randonnee-le-chainon-au-dessus-de-zugarramudi/</text>
  </link>
</metadata><wpt lat="43.256861" lon="-1.542565">
  <ele>432</ele>
  <time>2025-12-19T09:19:13.000Z</time>
  <name>Point de passage 1</name>
  <type>GENERIC</type>
</wpt><wpt lat="43.253063" lon="-1.546382">
  <ele>612</ele>
  <time>2025-12-19T09:59:15.000Z</time>
  <name>mendibil</name>
  <type>GENERIC</type>
</wpt><wpt lat="43.254539" lon="-1.551095">
  <ele>585</ele>
  <time>2025-12-19T10:10:30.000Z</time>
  <name>Airagarri</name>
  <type>GENERIC</type>
</wpt><wpt lat="43.255074" lon="-1.555474">
  <ele>514</ele>
  <time>2025-12-19T10:16:50.000Z</time>
  <name>Point de passage 4</name>
  <type>GENERIC</type>
</wpt><wpt lat="43.255771" lon="-1.570035">
  <ele>753</ele>
  <time>2025-12-19T11:28:39.000Z</time>
  <name>Point de passage 5</name>
  <type>GENERIC</type>
</wpt><wpt lat="43.258722" lon="-1.538481">
  <ele>513</ele>
  <time>2025-12-19T12:46:43.000Z</time>
  <name>Point de passage 6</name>
  <type>GENERIC</type>
</wpt><wpt lat="43.26394" lon="-1.527999">
  <ele>509</ele>
  <time>2025-12-19T13:25:00.000Z</time>
  <name>Point de passage 7</name>
  <type>GENERIC</type>
</wpt><wpt lat="43.256779" lon="-1.542515">
  <ele>432</ele>
  <time>2025-12-19T14:22:24.000Z</time>
  <name>Point de passage 8</name>
  <type>GENERIC</type>
</wpt><trk>
  <name>Le chaînon au-dessus de Zugarramudi</name>
  <trkseg>
    <trkpt lat="43.256861" lon="-1.542565">
      <ele>432</ele>
      <time>2025-12-19T09:19:13.000Z</time>
    </trkpt>
    <trkpt lat="43.256869" lon="-1.542616">
      <ele>433</ele>
      <time>2025-12-19T09:19:28.000Z</time>
    </trkpt>
    <trkpt lat="43.256716" lon="-1.542767">
      <ele>435</ele>
      <time>2025-12-19T09:20:10.000Z</time>
    </trkpt>
    <trkpt lat="43.256597" lon="-1.542945">
      <ele>439</ele>
      <time>2025-12-19T09:21:11.000Z</time>
    </trkpt>
    <trkpt lat="43.256192" lon="-1.543748">
      <ele>452</ele>
      <time>2025-12-19T09:24:46.000Z</time>
    </trkpt>
    <trkpt lat="43.255992" lon="-1.544014">
      <ele>464</ele>
      <time>2025-12-19T09:27:21.000Z</time>
    </trkpt>
    <trkpt lat="43.255764" lon="-1.544215">
      <ele>476</ele>
      <time>2025-12-19T09:29:55.000Z</time>
    </trkpt>
    <trkpt lat="43.255543" lon="-1.544327">
      <ele>486</ele>
      <time>2025-12-19T09:32:05.000Z</time>
    </trkpt>
    <trkpt lat="43.255186" lon="-1.544612">
      <ele>504</ele>
      <time>2025-12-19T09:35:57.000Z</time>
    </trkpt>
    <trkpt lat="43.255036" lon="-1.544836">
      <ele>515</ele>
      <time>2025-12-19T09:38:16.000Z</time>
    </trkpt>
    <trkpt lat="43.254604" lon="-1.54521">
      <ele>539</ele>
      <time>2025-12-19T09:43:21.000Z</time>
    </trkpt>
    <trkpt lat="43.254148" lon="-1.545677">
      <ele>568</ele>
      <time>2025-12-19T09:49:24.000Z</time>
    </trkpt>
    <trkpt lat="43.253516" lon="-1.546167">
      <ele>602</ele>
      <time>2025-12-19T09:56:37.000Z</time>
    </trkpt>
    <trkpt lat="43.253063" lon="-1.546382">
      <ele>612</ele>
      <time>2025-12-19T09:59:15.000Z</time>
    </trkpt>
    <trkpt lat="43.253104" lon="-1.546466">
      <ele>611</ele>
      <time>2025-12-19T09:59:23.000Z</time>
    </trkpt>
    <trkpt lat="43.253165" lon="-1.547508">
      <ele>587</ele>
      <time>2025-12-19T10:00:50.000Z</time>
    </trkpt>
    <trkpt lat="43.253131" lon="-1.548068">
      <ele>582</ele>
      <time>2025-12-19T10:01:37.000Z</time>
    </trkpt>
    <trkpt lat="43.253176" lon="-1.548484">
      <ele>574</ele>
      <time>2025-12-19T10:02:12.000Z</time>
    </trkpt>
    <trkpt lat="43.253342" lon="-1.549081">
      <ele>567</ele>
      <time>2025-12-19T10:03:05.000Z</time>
    </trkpt>
    <trkpt lat="43.253468" lon="-1.549319">
      <ele>566</ele>
      <time>2025-12-19T10:03:30.000Z</time>
    </trkpt>
    <trkpt lat="43.253652" lon="-1.549604">
      <ele>565</ele>
      <time>2025-12-19T10:04:02.000Z</time>
    </trkpt>
    <trkpt lat="43.253916" lon="-1.549687">
      <ele>565</ele>
      <time>2025-12-19T10:04:33.000Z</time>
    </trkpt>
    <trkpt lat="43.254093" lon="-1.550121">
      <ele>573</ele>
      <time>2025-12-19T10:06:37.000Z</time>
    </trkpt>
    <trkpt lat="43.254522" lon="-1.550832">
      <ele>586</ele>
      <time>2025-12-19T10:10:08.000Z</time>
    </trkpt>
    <trkpt lat="43.254539" lon="-1.551095">
      <ele>585</ele>
      <time>2025-12-19T10:10:30.000Z</time>
    </trkpt>
    <trkpt lat="43.254539" lon="-1.551095">
      <ele>585</ele>
      <time>2025-12-19T10:10:30.000Z</time>
    </trkpt>
    <trkpt lat="43.254453" lon="-1.551279">
      <ele>582</ele>
      <time>2025-12-19T10:10:48.000Z</time>
    </trkpt>
    <trkpt lat="43.254412" lon="-1.551899">
      <ele>567</ele>
      <time>2025-12-19T10:11:40.000Z</time>
    </trkpt>
    <trkpt lat="43.255086" lon="-1.5549">
      <ele>515</ele>
      <time>2025-12-19T10:16:02.000Z</time>
    </trkpt>
    <trkpt lat="43.255074" lon="-1.555474">
      <ele>514</ele>
      <time>2025-12-19T10:16:50.000Z</time>
    </trkpt>
    <trkpt lat="43.255196" lon="-1.555359">
      <ele>514</ele>
      <time>2025-12-19T10:17:07.000Z</time>
    </trkpt>
    <trkpt lat="43.255074" lon="-1.555474">
      <ele>514</ele>
      <time>2025-12-19T10:17:24.000Z</time>
    </trkpt>
    <trkpt lat="43.254543" lon="-1.556041">
      <ele>513</ele>
      <time>2025-12-19T10:18:41.000Z</time>
    </trkpt>
    <trkpt lat="43.254427" lon="-1.556253">
      <ele>514</ele>
      <time>2025-12-19T10:19:13.000Z</time>
    </trkpt>
    <trkpt lat="43.254151" lon="-1.556933">
      <ele>525</ele>
      <time>2025-12-19T10:22:11.000Z</time>
    </trkpt>
    <trkpt lat="43.253807" lon="-1.557271">
      <ele>525</ele>
      <time>2025-12-19T10:22:59.000Z</time>
    </trkpt>
    <trkpt lat="43.253689" lon="-1.557609">
      <ele>527</ele>
      <time>2025-12-19T10:23:51.000Z</time>
    </trkpt>
    <trkpt lat="43.25366" lon="-1.557837">
      <ele>529</ele>
      <time>2025-12-19T10:24:31.000Z</time>
    </trkpt>
    <trkpt lat="43.253496" lon="-1.558141">
      <ele>528</ele>
      <time>2025-12-19T10:25:03.000Z</time>
    </trkpt>
    <trkpt lat="43.253453" lon="-1.558333">
      <ele>528</ele>
      <time>2025-12-19T10:25:20.000Z</time>
    </trkpt>
    <trkpt lat="43.253434" lon="-1.558646">
      <ele>533</ele>
      <time>2025-12-19T10:26:38.000Z</time>
    </trkpt>
    <trkpt lat="43.253168" lon="-1.559068">
      <ele>535</ele>
      <time>2025-12-19T10:27:45.000Z</time>
    </trkpt>
    <trkpt lat="43.253085" lon="-1.559252">
      <ele>534</ele>
      <time>2025-12-19T10:28:03.000Z</time>
    </trkpt>
    <trkpt lat="43.252908" lon="-1.559865">
      <ele>535</ele>
      <time>2025-12-19T10:29:08.000Z</time>
    </trkpt>
    <trkpt lat="43.25272" lon="-1.560286">
      <ele>535</ele>
      <time>2025-12-19T10:29:49.000Z</time>
    </trkpt>
    <trkpt lat="43.252567" lon="-1.560557">
      <ele>536</ele>
      <time>2025-12-19T10:30:28.000Z</time>
    </trkpt>
    <trkpt lat="43.252375" lon="-1.560801">
      <ele>534</ele>
      <time>2025-12-19T10:30:58.000Z</time>
    </trkpt>
    <trkpt lat="43.25217" lon="-1.561254">
      <ele>536</ele>
      <time>2025-12-19T10:32:03.000Z</time>
    </trkpt>
    <trkpt lat="43.252093" lon="-1.561364">
      <ele>536</ele>
      <time>2025-12-19T10:32:16.000Z</time>
    </trkpt>
    <trkpt lat="43.251973" lon="-1.561686">
      <ele>537</ele>
      <time>2025-12-19T10:32:56.000Z</time>
    </trkpt>
    <trkpt lat="43.251894" lon="-1.561825">
      <ele>537</ele>
      <time>2025-12-19T10:33:11.000Z</time>
    </trkpt>
    <trkpt lat="43.252013" lon="-1.561823">
      <ele>538</ele>
      <time>2025-12-19T10:33:35.000Z</time>
    </trkpt>
    <trkpt lat="43.252261" lon="-1.561788">
      <ele>542</ele>
      <time>2025-12-19T10:34:45.000Z</time>
    </trkpt>
    <trkpt lat="43.252408" lon="-1.56171">
      <ele>545</ele>
      <time>2025-12-19T10:35:34.000Z</time>
    </trkpt>
    <trkpt lat="43.25264" lon="-1.561769">
      <ele>550</ele>
      <time>2025-12-19T10:36:52.000Z</time>
    </trkpt>
    <trkpt lat="43.252746" lon="-1.561686">
      <ele>551</ele>
      <time>2025-12-19T10:37:16.000Z</time>
    </trkpt>
    <trkpt lat="43.25292" lon="-1.561689">
      <ele>555</ele>
      <time>2025-12-19T10:38:17.000Z</time>
    </trkpt>
    <trkpt lat="43.253088" lon="-1.561641">
      <ele>558</ele>
      <time>2025-12-19T10:39:08.000Z</time>
    </trkpt>
    <trkpt lat="43.253297" lon="-1.561464">
      <ele>560</ele>
      <time>2025-12-19T10:39:57.000Z</time>
    </trkpt>
    <trkpt lat="43.253446" lon="-1.561487">
      <ele>563</ele>
      <time>2025-12-19T10:40:45.000Z</time>
    </trkpt>
    <trkpt lat="43.253734" lon="-1.561633">
      <ele>569</ele>
      <time>2025-12-19T10:42:22.000Z</time>
    </trkpt>
    <trkpt lat="43.253953" lon="-1.561936">
      <ele>575</ele>
      <time>2025-12-19T10:43:59.000Z</time>
    </trkpt>
    <trkpt lat="43.254291" lon="-1.562161">
      <ele>587</ele>
      <time>2025-12-19T10:46:45.000Z</time>
    </trkpt>
    <trkpt lat="43.254488" lon="-1.562499">
      <ele>598</ele>
      <time>2025-12-19T10:49:14.000Z</time>
    </trkpt>
    <trkpt lat="43.25454" lon="-1.562722">
      <ele>602</ele>
      <time>2025-12-19T10:50:15.000Z</time>
    </trkpt>
    <trkpt lat="43.254616" lon="-1.562778">
      <ele>605</ele>
      <time>2025-12-19T10:50:56.000Z</time>
    </trkpt>
    <trkpt lat="43.25462" lon="-1.562844">
      <ele>606</ele>
      <time>2025-12-19T10:51:12.000Z</time>
    </trkpt>
    <trkpt lat="43.254682" lon="-1.562939">
      <ele>609</ele>
      <time>2025-12-19T10:51:53.000Z</time>
    </trkpt>
    <trkpt lat="43.254934" lon="-1.56309">
      <ele>619</ele>
      <time>2025-12-19T10:54:07.000Z</time>
    </trkpt>
    <trkpt lat="43.254962" lon="-1.563163">
      <ele>621</ele>
      <time>2025-12-19T10:54:34.000Z</time>
    </trkpt>
    <trkpt lat="43.255115" lon="-1.563285">
      <ele>628</ele>
      <time>2025-12-19T10:56:06.000Z</time>
    </trkpt>
    <trkpt lat="43.255156" lon="-1.563269">
      <ele>629</ele>
      <time>2025-12-19T10:56:21.000Z</time>
    </trkpt>
    <trkpt lat="43.255215" lon="-1.563339">
      <ele>632</ele>
      <time>2025-12-19T10:57:01.000Z</time>
    </trkpt>
    <trkpt lat="43.255338" lon="-1.563691">
      <ele>639</ele>
      <time>2025-12-19T10:58:46.000Z</time>
    </trkpt>
    <trkpt lat="43.255442" lon="-1.563814">
      <ele>644</ele>
      <time>2025-12-19T10:59:53.000Z</time>
    </trkpt>
    <trkpt lat="43.25546" lon="-1.564033">
      <ele>645</ele>
      <time>2025-12-19T11:00:22.000Z</time>
    </trkpt>
    <trkpt lat="43.255621" lon="-1.564315">
      <ele>652</ele>
      <time>2025-12-19T11:02:04.000Z</time>
    </trkpt>
    <trkpt lat="43.255735" lon="-1.564435">
      <ele>656</ele>
      <time>2025-12-19T11:03:02.000Z</time>
    </trkpt>
    <trkpt lat="43.255832" lon="-1.564679">
      <ele>662</ele>
      <time>2025-12-19T11:04:27.000Z</time>
    </trkpt>
    <trkpt lat="43.25589" lon="-1.56475">
      <ele>665</ele>
      <time>2025-12-19T11:05:07.000Z</time>
    </trkpt>
    <trkpt lat="43.255875" lon="-1.56495">
      <ele>668</ele>
      <time>2025-12-19T11:05:55.000Z</time>
    </trkpt>
    <trkpt lat="43.255904" lon="-1.565001">
      <ele>670</ele>
      <time>2025-12-19T11:06:21.000Z</time>
    </trkpt>
    <trkpt lat="43.256004" lon="-1.564956">
      <ele>670</ele>
      <time>2025-12-19T11:06:33.000Z</time>
    </trkpt>
    <trkpt lat="43.255934" lon="-1.565158">
      <ele>673</ele>
      <time>2025-12-19T11:07:23.000Z</time>
    </trkpt>
    <trkpt lat="43.255989" lon="-1.565116">
      <ele>673</ele>
      <time>2025-12-19T11:07:30.000Z</time>
    </trkpt>
    <trkpt lat="43.25597" lon="-1.565126">
      <ele>673</ele>
      <time>2025-12-19T11:07:32.000Z</time>
    </trkpt>
    <trkpt lat="43.255907" lon="-1.565258">
      <ele>675</ele>
      <time>2025-12-19T11:08:06.000Z</time>
    </trkpt>
    <trkpt lat="43.255912" lon="-1.565489">
      <ele>679</ele>
      <time>2025-12-19T11:09:06.000Z</time>
    </trkpt>
    <trkpt lat="43.256074" lon="-1.566325">
      <ele>687</ele>
      <time>2025-12-19T11:11:40.000Z</time>
    </trkpt>
    <trkpt lat="43.256131" lon="-1.566908">
      <ele>697</ele>
      <time>2025-12-19T11:14:12.000Z</time>
    </trkpt>
    <trkpt lat="43.256111" lon="-1.567121">
      <ele>699</ele>
      <time>2025-12-19T11:14:50.000Z</time>
    </trkpt>
    <trkpt lat="43.256136" lon="-1.567191">
      <ele>699</ele>
      <time>2025-12-19T11:14:57.000Z</time>
    </trkpt>
    <trkpt lat="43.256058" lon="-1.567256">
      <ele>701</ele>
      <time>2025-12-19T11:15:28.000Z</time>
    </trkpt>
    <trkpt lat="43.255958" lon="-1.567696">
      <ele>720</ele>
      <time>2025-12-19T11:19:22.000Z</time>
    </trkpt>
    <trkpt lat="43.255984" lon="-1.568267">
      <ele>724</ele>
      <time>2025-12-19T11:20:51.000Z</time>
    </trkpt>
    <trkpt lat="43.255716" lon="-1.568931">
      <ele>747</ele>
      <time>2025-12-19T11:25:51.000Z</time>
    </trkpt>
    <trkpt lat="43.255699" lon="-1.569248">
      <ele>751</ele>
      <time>2025-12-19T11:26:59.000Z</time>
    </trkpt>
    <trkpt lat="43.25575" lon="-1.569445">
      <ele>750</ele>
      <time>2025-12-19T11:27:16.000Z</time>
    </trkpt>
    <trkpt lat="43.2557" lon="-1.569541">
      <ele>751</ele>
      <time>2025-12-19T11:27:36.000Z</time>
    </trkpt>
    <trkpt lat="43.255701" lon="-1.569659">
      <ele>751</ele>
      <time>2025-12-19T11:27:46.000Z</time>
    </trkpt>
    <trkpt lat="43.255771" lon="-1.570035">
      <ele>753</ele>
      <time>2025-12-19T11:28:39.000Z</time>
    </trkpt>
    <trkpt lat="43.255756" lon="-1.56996">
      <ele>753</ele>
      <time>2025-12-19T11:28:45.000Z</time>
    </trkpt>
    <trkpt lat="43.255697" lon="-1.569569">
      <ele>751</ele>
      <time>2025-12-19T11:29:18.000Z</time>
    </trkpt>
    <trkpt lat="43.25575" lon="-1.569445">
      <ele>750</ele>
      <time>2025-12-19T11:29:30.000Z</time>
    </trkpt>
    <trkpt lat="43.255699" lon="-1.569248">
      <ele>751</ele>
      <time>2025-12-19T11:29:58.000Z</time>
    </trkpt>
    <trkpt lat="43.255716" lon="-1.568931">
      <ele>747</ele>
      <time>2025-12-19T11:30:25.000Z</time>
    </trkpt>
    <trkpt lat="43.255984" lon="-1.568267">
      <ele>724</ele>
      <time>2025-12-19T11:31:28.000Z</time>
    </trkpt>
    <trkpt lat="43.255958" lon="-1.567696">
      <ele>720</ele>
      <time>2025-12-19T11:32:16.000Z</time>
    </trkpt>
    <trkpt lat="43.256058" lon="-1.567256">
      <ele>701</ele>
      <time>2025-12-19T11:32:54.000Z</time>
    </trkpt>
    <trkpt lat="43.256136" lon="-1.567191">
      <ele>699</ele>
      <time>2025-12-19T11:33:04.000Z</time>
    </trkpt>
    <trkpt lat="43.256111" lon="-1.567121">
      <ele>699</ele>
      <time>2025-12-19T11:33:11.000Z</time>
    </trkpt>
    <trkpt lat="43.256131" lon="-1.566908">
      <ele>697</ele>
      <time>2025-12-19T11:33:29.000Z</time>
    </trkpt>
    <trkpt lat="43.256074" lon="-1.566325">
      <ele>687</ele>
      <time>2025-12-19T11:34:18.000Z</time>
    </trkpt>
    <trkpt lat="43.255912" lon="-1.565489">
      <ele>679</ele>
      <time>2025-12-19T11:35:30.000Z</time>
    </trkpt>
    <trkpt lat="43.255902" lon="-1.5653">
      <ele>675</ele>
      <time>2025-12-19T11:35:46.000Z</time>
    </trkpt>
    <trkpt lat="43.255934" lon="-1.565158">
      <ele>673</ele>
      <time>2025-12-19T11:35:58.000Z</time>
    </trkpt>
    <trkpt lat="43.256072" lon="-1.565094">
      <ele>674</ele>
      <time>2025-12-19T11:36:25.000Z</time>
    </trkpt>
    <trkpt lat="43.256276" lon="-1.565106">
      <ele>674</ele>
      <time>2025-12-19T11:36:48.000Z</time>
    </trkpt>
    <trkpt lat="43.256422" lon="-1.565028">
      <ele>672</ele>
      <time>2025-12-19T11:37:06.000Z</time>
    </trkpt>
    <trkpt lat="43.256612" lon="-1.564735">
      <ele>667</ele>
      <time>2025-12-19T11:37:39.000Z</time>
    </trkpt>
    <trkpt lat="43.256641" lon="-1.56465">
      <ele>666</ele>
      <time>2025-12-19T11:37:47.000Z</time>
    </trkpt>
    <trkpt lat="43.256639" lon="-1.564477">
      <ele>665</ele>
      <time>2025-12-19T11:38:01.000Z</time>
    </trkpt>
    <trkpt lat="43.256663" lon="-1.564447">
      <ele>664</ele>
      <time>2025-12-19T11:38:05.000Z</time>
    </trkpt>
    <trkpt lat="43.256671" lon="-1.563927">
      <ele>662</ele>
      <time>2025-12-19T11:38:48.000Z</time>
    </trkpt>
    <trkpt lat="43.256634" lon="-1.56371">
      <ele>662</ele>
      <time>2025-12-19T11:39:07.000Z</time>
    </trkpt>
    <trkpt lat="43.256594" lon="-1.562171">
      <ele>652</ele>
      <time>2025-12-19T11:41:15.000Z</time>
    </trkpt>
    <trkpt lat="43.256519" lon="-1.561744">
      <ele>646</ele>
      <time>2025-12-19T11:41:52.000Z</time>
    </trkpt>
    <trkpt lat="43.256501" lon="-1.56146">
      <ele>642</ele>
      <time>2025-12-19T11:42:16.000Z</time>
    </trkpt>
    <trkpt lat="43.25634" lon="-1.561119">
      <ele>641</ele>
      <time>2025-12-19T11:42:50.000Z</time>
    </trkpt>
    <trkpt lat="43.256285" lon="-1.560935">
      <ele>636</ele>
      <time>2025-12-19T11:43:07.000Z</time>
    </trkpt>
    <trkpt lat="43.256202" lon="-1.560456">
      <ele>627</ele>
      <time>2025-12-19T11:43:48.000Z</time>
    </trkpt>
    <trkpt lat="43.256209" lon="-1.559991">
      <ele>613</ele>
      <time>2025-12-19T11:44:27.000Z</time>
    </trkpt>
    <trkpt lat="43.256275" lon="-1.559689">
      <ele>608</ele>
      <time>2025-12-19T11:44:53.000Z</time>
    </trkpt>
    <trkpt lat="43.256161" lon="-1.559442">
      <ele>601</ele>
      <time>2025-12-19T11:45:17.000Z</time>
    </trkpt>
    <trkpt lat="43.256089" lon="-1.559155">
      <ele>592</ele>
      <time>2025-12-19T11:45:42.000Z</time>
    </trkpt>
    <trkpt lat="43.255938" lon="-1.559057">
      <ele>583</ele>
      <time>2025-12-19T11:46:01.000Z</time>
    </trkpt>
    <trkpt lat="43.255849" lon="-1.559041">
      <ele>579</ele>
      <time>2025-12-19T11:46:11.000Z</time>
    </trkpt>
    <trkpt lat="43.255824" lon="-1.558992">
      <ele>577</ele>
      <time>2025-12-19T11:46:16.000Z</time>
    </trkpt>
    <trkpt lat="43.255688" lon="-1.558602">
      <ele>566</ele>
      <time>2025-12-19T11:46:52.000Z</time>
    </trkpt>
    <trkpt lat="43.25557" lon="-1.55811">
      <ele>558</ele>
      <time>2025-12-19T11:47:35.000Z</time>
    </trkpt>
    <trkpt lat="43.255451" lon="-1.558001">
      <ele>555</ele>
      <time>2025-12-19T11:47:51.000Z</time>
    </trkpt>
    <trkpt lat="43.255198" lon="-1.557257">
      <ele>536</ele>
      <time>2025-12-19T11:48:59.000Z</time>
    </trkpt>
    <trkpt lat="43.255168" lon="-1.556892">
      <ele>527</ele>
      <time>2025-12-19T11:49:30.000Z</time>
    </trkpt>
    <trkpt lat="43.255212" lon="-1.556174">
      <ele>516</ele>
      <time>2025-12-19T11:50:30.000Z</time>
    </trkpt>
    <trkpt lat="43.25508" lon="-1.555646">
      <ele>513</ele>
      <time>2025-12-19T11:51:17.000Z</time>
    </trkpt>
    <trkpt lat="43.255074" lon="-1.555474">
      <ele>514</ele>
      <time>2025-12-19T11:51:42.000Z</time>
    </trkpt>
    <trkpt lat="43.255141" lon="-1.555411">
      <ele>514</ele>
      <time>2025-12-19T11:51:51.000Z</time>
    </trkpt>
    <trkpt lat="43.255074" lon="-1.555474">
      <ele>514</ele>
      <time>2025-12-19T11:52:00.000Z</time>
    </trkpt>
    <trkpt lat="43.255133" lon="-1.554948">
      <ele>515</ele>
      <time>2025-12-19T11:52:55.000Z</time>
    </trkpt>
    <trkpt lat="43.255394" lon="-1.553944">
      <ele>520</ele>
      <time>2025-12-19T11:55:15.000Z</time>
    </trkpt>
    <trkpt lat="43.255521" lon="-1.553611">
      <ele>522</ele>
      <time>2025-12-19T11:56:07.000Z</time>
    </trkpt>
    <trkpt lat="43.25553" lon="-1.553431">
      <ele>524</ele>
      <time>2025-12-19T11:56:43.000Z</time>
    </trkpt>
    <trkpt lat="43.255613" lon="-1.553256">
      <ele>526</ele>
      <time>2025-12-19T11:57:21.000Z</time>
    </trkpt>
    <trkpt lat="43.255803" lon="-1.552577">
      <ele>532</ele>
      <time>2025-12-19T11:59:23.000Z</time>
    </trkpt>
    <trkpt lat="43.255813" lon="-1.552359">
      <ele>532</ele>
      <time>2025-12-19T11:59:41.000Z</time>
    </trkpt>
    <trkpt lat="43.255925" lon="-1.552259">
      <ele>529</ele>
      <time>2025-12-19T11:59:56.000Z</time>
    </trkpt>
    <trkpt lat="43.256112" lon="-1.552191">
      <ele>526</ele>
      <time>2025-12-19T12:00:18.000Z</time>
    </trkpt>
    <trkpt lat="43.256288" lon="-1.552052">
      <ele>525</ele>
      <time>2025-12-19T12:00:41.000Z</time>
    </trkpt>
    <trkpt lat="43.256485" lon="-1.551633">
      <ele>525</ele>
      <time>2025-12-19T12:01:23.000Z</time>
    </trkpt>
    <trkpt lat="43.256524" lon="-1.551513">
      <ele>524</ele>
      <time>2025-12-19T12:01:34.000Z</time>
    </trkpt>
    <trkpt lat="43.256538" lon="-1.551161">
      <ele>526</ele>
      <time>2025-12-19T12:02:24.000Z</time>
    </trkpt>
    <trkpt lat="43.256563" lon="-1.551066">
      <ele>526</ele>
      <time>2025-12-19T12:02:32.000Z</time>
    </trkpt>
    <trkpt lat="43.256678" lon="-1.55088">
      <ele>522</ele>
      <time>2025-12-19T12:02:52.000Z</time>
    </trkpt>
    <trkpt lat="43.25674" lon="-1.55044">
      <ele>520</ele>
      <time>2025-12-19T12:03:29.000Z</time>
    </trkpt>
    <trkpt lat="43.256699" lon="-1.550156">
      <ele>517</ele>
      <time>2025-12-19T12:03:53.000Z</time>
    </trkpt>
    <trkpt lat="43.256595" lon="-1.549962">
      <ele>518</ele>
      <time>2025-12-19T12:04:23.000Z</time>
    </trkpt>
    <trkpt lat="43.25653" lon="-1.549677">
      <ele>515</ele>
      <time>2025-12-19T12:04:48.000Z</time>
    </trkpt>
    <trkpt lat="43.25634" lon="-1.549426">
      <ele>515</ele>
      <time>2025-12-19T12:05:18.000Z</time>
    </trkpt>
    <trkpt lat="43.256212" lon="-1.549102">
      <ele>513</ele>
      <time>2025-12-19T12:05:49.000Z</time>
    </trkpt>
    <trkpt lat="43.256146" lon="-1.548544">
      <ele>507</ele>
      <time>2025-12-19T12:06:36.000Z</time>
    </trkpt>
    <trkpt lat="43.256029" lon="-1.54808">
      <ele>503</ele>
      <time>2025-12-19T12:07:17.000Z</time>
    </trkpt>
    <trkpt lat="43.256034" lon="-1.547836">
      <ele>500</ele>
      <time>2025-12-19T12:07:37.000Z</time>
    </trkpt>
    <trkpt lat="43.256205" lon="-1.54776">
      <ele>495</ele>
      <time>2025-12-19T12:07:58.000Z</time>
    </trkpt>
    <trkpt lat="43.256215" lon="-1.547707">
      <ele>494</ele>
      <time>2025-12-19T12:08:03.000Z</time>
    </trkpt>
    <trkpt lat="43.256096" lon="-1.547626">
      <ele>495</ele>
      <time>2025-12-19T12:08:28.000Z</time>
    </trkpt>
    <trkpt lat="43.25591" lon="-1.54707">
      <ele>494</ele>
      <time>2025-12-19T12:09:19.000Z</time>
    </trkpt>
    <trkpt lat="43.256096" lon="-1.546875">
      <ele>487</ele>
      <time>2025-12-19T12:09:46.000Z</time>
    </trkpt>
    <trkpt lat="43.256171" lon="-1.546741">
      <ele>485</ele>
      <time>2025-12-19T12:10:00.000Z</time>
    </trkpt>
    <trkpt lat="43.256282" lon="-1.546116">
      <ele>477</ele>
      <time>2025-12-19T12:10:54.000Z</time>
    </trkpt>
    <trkpt lat="43.256225" lon="-1.545309">
      <ele>473</ele>
      <time>2025-12-19T12:12:02.000Z</time>
    </trkpt>
    <trkpt lat="43.256373" lon="-1.544807">
      <ele>462</ele>
      <time>2025-12-19T12:12:47.000Z</time>
    </trkpt>
    <trkpt lat="43.256365" lon="-1.544241">
      <ele>456</ele>
      <time>2025-12-19T12:13:34.000Z</time>
    </trkpt>
    <trkpt lat="43.256406" lon="-1.543809">
      <ele>446</ele>
      <time>2025-12-19T12:14:10.000Z</time>
    </trkpt>
    <trkpt lat="43.256443" lon="-1.543652">
      <ele>443</ele>
      <time>2025-12-19T12:14:24.000Z</time>
    </trkpt>
    <trkpt lat="43.256601" lon="-1.543303">
      <ele>440</ele>
      <time>2025-12-19T12:14:58.000Z</time>
    </trkpt>
    <trkpt lat="43.256683" lon="-1.542919">
      <ele>438</ele>
      <time>2025-12-19T12:15:31.000Z</time>
    </trkpt>
    <trkpt lat="43.256696" lon="-1.542925">
      <ele>438</ele>
      <time>2025-12-19T12:15:33.000Z</time>
    </trkpt>
    <trkpt lat="43.256702" lon="-1.5429">
      <ele>437</ele>
      <time>2025-12-19T12:15:35.000Z</time>
    </trkpt>
    <trkpt lat="43.256716" lon="-1.542767">
      <ele>435</ele>
      <time>2025-12-19T12:15:46.000Z</time>
    </trkpt>
    <trkpt lat="43.256869" lon="-1.542616">
      <ele>433</ele>
      <time>2025-12-19T12:16:08.000Z</time>
    </trkpt>
    <trkpt lat="43.256861" lon="-1.542565">
      <ele>432</ele>
      <time>2025-12-19T12:16:12.000Z</time>
    </trkpt>
    <trkpt lat="43.256861" lon="-1.542565">
      <ele>432</ele>
      <time>2025-12-19T12:16:12.000Z</time>
    </trkpt>
    <trkpt lat="43.256953" lon="-1.542456">
      <ele>431</ele>
      <time>2025-12-19T12:16:26.000Z</time>
    </trkpt>
    <trkpt lat="43.256972" lon="-1.542433">
      <ele>431</ele>
      <time>2025-12-19T12:16:29.000Z</time>
    </trkpt>
    <trkpt lat="43.257112" lon="-1.542181">
      <ele>432</ele>
      <time>2025-12-19T12:17:06.000Z</time>
    </trkpt>
    <trkpt lat="43.257776" lon="-1.541466">
      <ele>447</ele>
      <time>2025-12-19T12:21:17.000Z</time>
    </trkpt>
    <trkpt lat="43.257892" lon="-1.541281">
      <ele>451</ele>
      <time>2025-12-19T12:22:18.000Z</time>
    </trkpt>
    <trkpt lat="43.258021" lon="-1.540893">
      <ele>460</ele>
      <time>2025-12-19T12:24:26.000Z</time>
    </trkpt>
    <trkpt lat="43.258292" lon="-1.540584">
      <ele>469</ele>
      <time>2025-12-19T12:26:39.000Z</time>
    </trkpt>
    <trkpt lat="43.258585" lon="-1.540345">
      <ele>482</ele>
      <time>2025-12-19T12:29:32.000Z</time>
    </trkpt>
    <trkpt lat="43.258734" lon="-1.540359">
      <ele>485</ele>
      <time>2025-12-19T12:30:20.000Z</time>
    </trkpt>
    <trkpt lat="43.258805" lon="-1.540405">
      <ele>485</ele>
      <time>2025-12-19T12:30:29.000Z</time>
    </trkpt>
    <trkpt lat="43.258847" lon="-1.540445">
      <ele>485</ele>
      <time>2025-12-19T12:30:35.000Z</time>
    </trkpt>
    <trkpt lat="43.25905" lon="-1.540549">
      <ele>483</ele>
      <time>2025-12-19T12:31:00.000Z</time>
    </trkpt>
    <trkpt lat="43.259554" lon="-1.540611">
      <ele>477</ele>
      <time>2025-12-19T12:31:58.000Z</time>
    </trkpt>
    <trkpt lat="43.259714" lon="-1.540689">
      <ele>472</ele>
      <time>2025-12-19T12:32:17.000Z</time>
    </trkpt>
    <trkpt lat="43.260017" lon="-1.540707">
      <ele>468</ele>
      <time>2025-12-19T12:32:52.000Z</time>
    </trkpt>
    <trkpt lat="43.260031" lon="-1.540549">
      <ele>473</ele>
      <time>2025-12-19T12:33:57.000Z</time>
    </trkpt>
    <trkpt lat="43.259925" lon="-1.540396">
      <ele>478</ele>
      <time>2025-12-19T12:35:06.000Z</time>
    </trkpt>
    <trkpt lat="43.259886" lon="-1.540262">
      <ele>483</ele>
      <time>2025-12-19T12:36:09.000Z</time>
    </trkpt>
    <trkpt lat="43.259818" lon="-1.540251">
      <ele>485</ele>
      <time>2025-12-19T12:36:37.000Z</time>
    </trkpt>
    <trkpt lat="43.25963" lon="-1.539393">
      <ele>506</ele>
      <time>2025-12-19T12:41:28.000Z</time>
    </trkpt>
    <trkpt lat="43.259408" lon="-1.538795">
      <ele>512</ele>
      <time>2025-12-19T12:43:26.000Z</time>
    </trkpt>
    <trkpt lat="43.259349" lon="-1.538757">
      <ele>514</ele>
      <time>2025-12-19T12:43:54.000Z</time>
    </trkpt>
    <trkpt lat="43.259288" lon="-1.538881">
      <ele>518</ele>
      <time>2025-12-19T12:44:48.000Z</time>
    </trkpt>
    <trkpt lat="43.259238" lon="-1.538867">
      <ele>520</ele>
      <time>2025-12-19T12:45:14.000Z</time>
    </trkpt>
    <trkpt lat="43.259175" lon="-1.53879">
      <ele>522</ele>
      <time>2025-12-19T12:45:44.000Z</time>
    </trkpt>
    <trkpt lat="43.258997" lon="-1.538728">
      <ele>518</ele>
      <time>2025-12-19T12:46:05.000Z</time>
    </trkpt>
    <trkpt lat="43.258907" lon="-1.538599">
      <ele>518</ele>
      <time>2025-12-19T12:46:20.000Z</time>
    </trkpt>
    <trkpt lat="43.258722" lon="-1.538481">
      <ele>513</ele>
      <time>2025-12-19T12:46:43.000Z</time>
    </trkpt>
    <trkpt lat="43.258769" lon="-1.538138">
      <ele>522</ele>
      <time>2025-12-19T12:48:45.000Z</time>
    </trkpt>
    <trkpt lat="43.258659" lon="-1.537537">
      <ele>522</ele>
      <time>2025-12-19T12:49:37.000Z</time>
    </trkpt>
    <trkpt lat="43.258712" lon="-1.537453">
      <ele>523</ele>
      <time>2025-12-19T12:49:57.000Z</time>
    </trkpt>
    <trkpt lat="43.258726" lon="-1.537422">
      <ele>523</ele>
      <time>2025-12-19T12:50:00.000Z</time>
    </trkpt>
    <trkpt lat="43.258976" lon="-1.536837">
      <ele>523</ele>
      <time>2025-12-19T12:50:57.000Z</time>
    </trkpt>
    <trkpt lat="43.258986" lon="-1.536695">
      <ele>523</ele>
      <time>2025-12-19T12:51:09.000Z</time>
    </trkpt>
    <trkpt lat="43.259052" lon="-1.536499">
      <ele>522</ele>
      <time>2025-12-19T12:51:27.000Z</time>
    </trkpt>
    <trkpt lat="43.25948" lon="-1.53611">
      <ele>523</ele>
      <time>2025-12-19T12:52:36.000Z</time>
    </trkpt>
    <trkpt lat="43.259833" lon="-1.535676">
      <ele>520</ele>
      <time>2025-12-19T12:53:30.000Z</time>
    </trkpt>
    <trkpt lat="43.260017" lon="-1.535517">
      <ele>521</ele>
      <time>2025-12-19T12:54:05.000Z</time>
    </trkpt>
    <trkpt lat="43.26016" lon="-1.535289">
      <ele>520</ele>
      <time>2025-12-19T12:54:30.000Z</time>
    </trkpt>
    <trkpt lat="43.26021" lon="-1.535123">
      <ele>519</ele>
      <time>2025-12-19T12:54:45.000Z</time>
    </trkpt>
    <trkpt lat="43.260214" lon="-1.534938">
      <ele>517</ele>
      <time>2025-12-19T12:55:00.000Z</time>
    </trkpt>
    <trkpt lat="43.260298" lon="-1.534753">
      <ele>514</ele>
      <time>2025-12-19T12:55:18.000Z</time>
    </trkpt>
    <trkpt lat="43.260533" lon="-1.534697">
      <ele>506</ele>
      <time>2025-12-19T12:55:45.000Z</time>
    </trkpt>
    <trkpt lat="43.26079" lon="-1.53479">
      <ele>497</ele>
      <time>2025-12-19T12:56:15.000Z</time>
    </trkpt>
    <trkpt lat="43.260878" lon="-1.534864">
      <ele>494</ele>
      <time>2025-12-19T12:56:27.000Z</time>
    </trkpt>
    <trkpt lat="43.260999" lon="-1.535057">
      <ele>493</ele>
      <time>2025-12-19T12:56:48.000Z</time>
    </trkpt>
    <trkpt lat="43.261183" lon="-1.535519">
      <ele>488</ele>
      <time>2025-12-19T12:57:32.000Z</time>
    </trkpt>
    <trkpt lat="43.261392" lon="-1.535883">
      <ele>479</ele>
      <time>2025-12-19T12:58:11.000Z</time>
    </trkpt>
    <trkpt lat="43.26145" lon="-1.535881">
      <ele>477</ele>
      <time>2025-12-19T12:58:18.000Z</time>
    </trkpt>
    <trkpt lat="43.261565" lon="-1.535736">
      <ele>473</ele>
      <time>2025-12-19T12:58:36.000Z</time>
    </trkpt>
    <trkpt lat="43.261696" lon="-1.535444">
      <ele>464</ele>
      <time>2025-12-19T12:59:05.000Z</time>
    </trkpt>
    <trkpt lat="43.261815" lon="-1.535009">
      <ele>454</ele>
      <time>2025-12-19T12:59:44.000Z</time>
    </trkpt>
    <trkpt lat="43.261792" lon="-1.533378">
      <ele>444</ele>
      <time>2025-12-19T13:02:00.000Z</time>
    </trkpt>
    <trkpt lat="43.261855" lon="-1.532606">
      <ele>442</ele>
      <time>2025-12-19T13:03:05.000Z</time>
    </trkpt>
    <trkpt lat="43.261784" lon="-1.532169">
      <ele>442</ele>
      <time>2025-12-19T13:03:42.000Z</time>
    </trkpt>
    <trkpt lat="43.261748" lon="-1.531895">
      <ele>441</ele>
      <time>2025-12-19T13:04:05.000Z</time>
    </trkpt>
    <trkpt lat="43.262143" lon="-1.531654">
      <ele>450</ele>
      <time>2025-12-19T13:06:27.000Z</time>
    </trkpt>
    <trkpt lat="43.262341" lon="-1.531408">
      <ele>457</ele>
      <time>2025-12-19T13:08:10.000Z</time>
    </trkpt>
    <trkpt lat="43.262736" lon="-1.531161">
      <ele>467</ele>
      <time>2025-12-19T13:10:43.000Z</time>
    </trkpt>
    <trkpt lat="43.26297" lon="-1.530901">
      <ele>473</ele>
      <time>2025-12-19T13:12:19.000Z</time>
    </trkpt>
    <trkpt lat="43.263145" lon="-1.530608">
      <ele>480</ele>
      <time>2025-12-19T13:14:03.000Z</time>
    </trkpt>
    <trkpt lat="43.263176" lon="-1.529956">
      <ele>488</ele>
      <time>2025-12-19T13:16:20.000Z</time>
    </trkpt>
    <trkpt lat="43.263209" lon="-1.529917">
      <ele>489</ele>
      <time>2025-12-19T13:16:35.000Z</time>
    </trkpt>
    <trkpt lat="43.263336" lon="-1.529981">
      <ele>493</ele>
      <time>2025-12-19T13:17:32.000Z</time>
    </trkpt>
    <trkpt lat="43.263563" lon="-1.530257">
      <ele>496</ele>
      <time>2025-12-19T13:18:38.000Z</time>
    </trkpt>
    <trkpt lat="43.263717" lon="-1.530321">
      <ele>497</ele>
      <time>2025-12-19T13:19:07.000Z</time>
    </trkpt>
    <trkpt lat="43.263885" lon="-1.530275">
      <ele>497</ele>
      <time>2025-12-19T13:19:27.000Z</time>
    </trkpt>
    <trkpt lat="43.264037" lon="-1.529567">
      <ele>499</ele>
      <time>2025-12-19T13:20:49.000Z</time>
    </trkpt>
    <trkpt lat="43.264008" lon="-1.529305">
      <ele>502</ele>
      <time>2025-12-19T13:21:42.000Z</time>
    </trkpt>
    <trkpt lat="43.264032" lon="-1.529082">
      <ele>504</ele>
      <time>2025-12-19T13:22:21.000Z</time>
    </trkpt>
    <trkpt lat="43.264027" lon="-1.528597">
      <ele>509</ele>
      <time>2025-12-19T13:23:53.000Z</time>
    </trkpt>
    <trkpt lat="43.263983" lon="-1.528463">
      <ele>510</ele>
      <time>2025-12-19T13:24:16.000Z</time>
    </trkpt>
    <trkpt lat="43.2639" lon="-1.528346">
      <ele>510</ele>
      <time>2025-12-19T13:24:30.000Z</time>
    </trkpt>
    <trkpt lat="43.263892" lon="-1.528241">
      <ele>510</ele>
      <time>2025-12-19T13:24:39.000Z</time>
    </trkpt>
    <trkpt lat="43.26394" lon="-1.527999">
      <ele>509</ele>
      <time>2025-12-19T13:25:00.000Z</time>
    </trkpt>
    <trkpt lat="43.263972" lon="-1.527857">
      <ele>509</ele>
      <time>2025-12-19T13:25:12.000Z</time>
    </trkpt>
    <trkpt lat="43.264129" lon="-1.527382">
      <ele>509</ele>
      <time>2025-12-19T13:25:55.000Z</time>
    </trkpt>
    <trkpt lat="43.264129" lon="-1.527315">
      <ele>508</ele>
      <time>2025-12-19T13:26:01.000Z</time>
    </trkpt>
    <trkpt lat="43.26406" lon="-1.527219">
      <ele>506</ele>
      <time>2025-12-19T13:26:12.000Z</time>
    </trkpt>
    <trkpt lat="43.263762" lon="-1.527181">
      <ele>498</ele>
      <time>2025-12-19T13:26:46.000Z</time>
    </trkpt>
    <trkpt lat="43.263667" lon="-1.527018">
      <ele>492</ele>
      <time>2025-12-19T13:27:03.000Z</time>
    </trkpt>
    <trkpt lat="43.263257" lon="-1.526794">
      <ele>473</ele>
      <time>2025-12-19T13:27:54.000Z</time>
    </trkpt>
    <trkpt lat="43.262982" lon="-1.527016">
      <ele>470</ele>
      <time>2025-12-19T13:28:31.000Z</time>
    </trkpt>
    <trkpt lat="43.262826" lon="-1.527272">
      <ele>470</ele>
      <time>2025-12-19T13:28:59.000Z</time>
    </trkpt>
    <trkpt lat="43.262727" lon="-1.527364">
      <ele>468</ele>
      <time>2025-12-19T13:29:13.000Z</time>
    </trkpt>
    <trkpt lat="43.262623" lon="-1.527331">
      <ele>465</ele>
      <time>2025-12-19T13:29:25.000Z</time>
    </trkpt>
    <trkpt lat="43.262453" lon="-1.527205">
      <ele>461</ele>
      <time>2025-12-19T13:29:47.000Z</time>
    </trkpt>
    <trkpt lat="43.262208" lon="-1.527214">
      <ele>455</ele>
      <time>2025-12-19T13:30:15.000Z</time>
    </trkpt>
    <trkpt lat="43.26163" lon="-1.526845">
      <ele>438</ele>
      <time>2025-12-19T13:31:28.000Z</time>
    </trkpt>
    <trkpt lat="43.261202" lon="-1.526306">
      <ele>423</ele>
      <time>2025-12-19T13:32:34.000Z</time>
    </trkpt>
    <trkpt lat="43.261203" lon="-1.526304">
      <ele>423</ele>
      <time>2025-12-19T13:32:34.000Z</time>
    </trkpt>
    <trkpt lat="43.261167" lon="-1.526262">
      <ele>423</ele>
      <time>2025-12-19T13:32:39.000Z</time>
    </trkpt>
    <trkpt lat="43.261138" lon="-1.526321">
      <ele>423</ele>
      <time>2025-12-19T13:32:45.000Z</time>
    </trkpt>
    <trkpt lat="43.261138" lon="-1.526321">
      <ele>423</ele>
      <time>2025-12-19T13:32:45.000Z</time>
    </trkpt>
    <trkpt lat="43.26111" lon="-1.52646">
      <ele>425</ele>
      <time>2025-12-19T13:33:18.000Z</time>
    </trkpt>
    <trkpt lat="43.261065" lon="-1.526681">
      <ele>425</ele>
      <time>2025-12-19T13:33:37.000Z</time>
    </trkpt>
    <trkpt lat="43.261061" lon="-1.526946">
      <ele>424</ele>
      <time>2025-12-19T13:33:59.000Z</time>
    </trkpt>
    <trkpt lat="43.261108" lon="-1.527343">
      <ele>421</ele>
      <time>2025-12-19T13:34:33.000Z</time>
    </trkpt>
    <trkpt lat="43.261202" lon="-1.527724">
      <ele>420</ele>
      <time>2025-12-19T13:35:07.000Z</time>
    </trkpt>
    <trkpt lat="43.261747" lon="-1.528125">
      <ele>431</ele>
      <time>2025-12-19T13:38:11.000Z</time>
    </trkpt>
    <trkpt lat="43.261828" lon="-1.528276">
      <ele>433</ele>
      <time>2025-12-19T13:38:47.000Z</time>
    </trkpt>
    <trkpt lat="43.26187" lon="-1.528488">
      <ele>436</ele>
      <time>2025-12-19T13:39:36.000Z</time>
    </trkpt>
    <trkpt lat="43.261813" lon="-1.528749">
      <ele>437</ele>
      <time>2025-12-19T13:40:09.000Z</time>
    </trkpt>
    <trkpt lat="43.261442" lon="-1.529162">
      <ele>430</ele>
      <time>2025-12-19T13:41:04.000Z</time>
    </trkpt>
    <trkpt lat="43.261397" lon="-1.529266">
      <ele>431</ele>
      <time>2025-12-19T13:41:24.000Z</time>
    </trkpt>
    <trkpt lat="43.261369" lon="-1.529356">
      <ele>431</ele>
      <time>2025-12-19T13:41:32.000Z</time>
    </trkpt>
    <trkpt lat="43.261369" lon="-1.529819">
      <ele>436</ele>
      <time>2025-12-19T13:43:02.000Z</time>
    </trkpt>
    <trkpt lat="43.261331" lon="-1.529985">
      <ele>435</ele>
      <time>2025-12-19T13:43:17.000Z</time>
    </trkpt>
    <trkpt lat="43.261346" lon="-1.530133">
      <ele>434</ele>
      <time>2025-12-19T13:43:29.000Z</time>
    </trkpt>
    <trkpt lat="43.261528" lon="-1.53038">
      <ele>440</ele>
      <time>2025-12-19T13:45:00.000Z</time>
    </trkpt>
    <trkpt lat="43.261605" lon="-1.530996">
      <ele>437</ele>
      <time>2025-12-19T13:45:52.000Z</time>
    </trkpt>
    <trkpt lat="43.261714" lon="-1.53136">
      <ele>440</ele>
      <time>2025-12-19T13:46:56.000Z</time>
    </trkpt>
    <trkpt lat="43.261709" lon="-1.531594">
      <ele>439</ele>
      <time>2025-12-19T13:47:16.000Z</time>
    </trkpt>
    <trkpt lat="43.261748" lon="-1.531895">
      <ele>441</ele>
      <time>2025-12-19T13:48:02.000Z</time>
    </trkpt>
    <trkpt lat="43.261784" lon="-1.532169">
      <ele>442</ele>
      <time>2025-12-19T13:48:36.000Z</time>
    </trkpt>
    <trkpt lat="43.261861" lon="-1.532644">
      <ele>442</ele>
      <time>2025-12-19T13:49:17.000Z</time>
    </trkpt>
    <trkpt lat="43.261842" lon="-1.532768">
      <ele>441</ele>
      <time>2025-12-19T13:49:28.000Z</time>
    </trkpt>
    <trkpt lat="43.261421" lon="-1.532713">
      <ele>437</ele>
      <time>2025-12-19T13:50:16.000Z</time>
    </trkpt>
    <trkpt lat="43.261315" lon="-1.532622">
      <ele>435</ele>
      <time>2025-12-19T13:50:30.000Z</time>
    </trkpt>
    <trkpt lat="43.261167" lon="-1.532434">
      <ele>434</ele>
      <time>2025-12-19T13:50:53.000Z</time>
    </trkpt>
    <trkpt lat="43.260999" lon="-1.532327">
      <ele>431</ele>
      <time>2025-12-19T13:51:14.000Z</time>
    </trkpt>
    <trkpt lat="43.26037" lon="-1.532482">
      <ele>432</ele>
      <time>2025-12-19T13:52:37.000Z</time>
    </trkpt>
    <trkpt lat="43.259786" lon="-1.532311">
      <ele>426</ele>
      <time>2025-12-19T13:53:45.000Z</time>
    </trkpt>
    <trkpt lat="43.259668" lon="-1.532361">
      <ele>424</ele>
      <time>2025-12-19T13:53:59.000Z</time>
    </trkpt>
    <trkpt lat="43.259464" lon="-1.532727">
      <ele>426</ele>
      <time>2025-12-19T13:54:58.000Z</time>
    </trkpt>
    <trkpt lat="43.259159" lon="-1.53274">
      <ele>422</ele>
      <time>2025-12-19T13:55:33.000Z</time>
    </trkpt>
    <trkpt lat="43.258905" lon="-1.53285">
      <ele>423</ele>
      <time>2025-12-19T13:56:14.000Z</time>
    </trkpt>
    <trkpt lat="43.258623" lon="-1.532838">
      <ele>419</ele>
      <time>2025-12-19T13:56:46.000Z</time>
    </trkpt>
    <trkpt lat="43.258393" lon="-1.532965">
      <ele>418</ele>
      <time>2025-12-19T13:57:14.000Z</time>
    </trkpt>
    <trkpt lat="43.258294" lon="-1.533065">
      <ele>419</ele>
      <time>2025-12-19T13:57:38.000Z</time>
    </trkpt>
    <trkpt lat="43.258288" lon="-1.533057">
      <ele>419</ele>
      <time>2025-12-19T13:57:39.000Z</time>
    </trkpt>
    <trkpt lat="43.258232" lon="-1.533128">
      <ele>421</ele>
      <time>2025-12-19T13:58:08.000Z</time>
    </trkpt>
    <trkpt lat="43.258232" lon="-1.533128">
      <ele>421</ele>
      <time>2025-12-19T13:58:08.000Z</time>
    </trkpt>
    <trkpt lat="43.258186" lon="-1.533174">
      <ele>422</ele>
      <time>2025-12-19T13:58:25.000Z</time>
    </trkpt>
    <trkpt lat="43.258131" lon="-1.533207">
      <ele>423</ele>
      <time>2025-12-19T13:58:42.000Z</time>
    </trkpt>
    <trkpt lat="43.258129" lon="-1.533202">
      <ele>423</ele>
      <time>2025-12-19T13:58:42.000Z</time>
    </trkpt>
    <trkpt lat="43.25808" lon="-1.533237">
      <ele>424</ele>
      <time>2025-12-19T13:58:59.000Z</time>
    </trkpt>
    <trkpt lat="43.257866" lon="-1.533304">
      <ele>420</ele>
      <time>2025-12-19T13:59:24.000Z</time>
    </trkpt>
    <trkpt lat="43.257646" lon="-1.533516">
      <ele>414</ele>
      <time>2025-12-19T13:59:55.000Z</time>
    </trkpt>
    <trkpt lat="43.257499" lon="-1.53388">
      <ele>411</ele>
      <time>2025-12-19T14:00:30.000Z</time>
    </trkpt>
    <trkpt lat="43.257475" lon="-1.534298">
      <ele>415</ele>
      <time>2025-12-19T14:01:46.000Z</time>
    </trkpt>
    <trkpt lat="43.257366" lon="-1.534625">
      <ele>416</ele>
      <time>2025-12-19T14:02:26.000Z</time>
    </trkpt>
    <trkpt lat="43.257164" lon="-1.534824">
      <ele>414</ele>
      <time>2025-12-19T14:02:54.000Z</time>
    </trkpt>
    <trkpt lat="43.256862" lon="-1.534931">
      <ele>412</ele>
      <time>2025-12-19T14:03:30.000Z</time>
    </trkpt>
    <trkpt lat="43.256754" lon="-1.535008">
      <ele>411</ele>
      <time>2025-12-19T14:03:44.000Z</time>
    </trkpt>
    <trkpt lat="43.256674" lon="-1.535122">
      <ele>409</ele>
      <time>2025-12-19T14:03:57.000Z</time>
    </trkpt>
    <trkpt lat="43.256634" lon="-1.53526">
      <ele>408</ele>
      <time>2025-12-19T14:04:09.000Z</time>
    </trkpt>
    <trkpt lat="43.25662" lon="-1.535491">
      <ele>408</ele>
      <time>2025-12-19T14:04:28.000Z</time>
    </trkpt>
    <trkpt lat="43.256823" lon="-1.536224">
      <ele>419</ele>
      <time>2025-12-19T14:07:27.000Z</time>
    </trkpt>
    <trkpt lat="43.256831" lon="-1.536388">
      <ele>421</ele>
      <time>2025-12-19T14:08:01.000Z</time>
    </trkpt>
    <trkpt lat="43.256788" lon="-1.536533">
      <ele>422</ele>
      <time>2025-12-19T14:08:24.000Z</time>
    </trkpt>
    <trkpt lat="43.256682" lon="-1.536683">
      <ele>421</ele>
      <time>2025-12-19T14:08:41.000Z</time>
    </trkpt>
    <trkpt lat="43.256432" lon="-1.536838">
      <ele>416</ele>
      <time>2025-12-19T14:09:12.000Z</time>
    </trkpt>
    <trkpt lat="43.256377" lon="-1.536962">
      <ele>416</ele>
      <time>2025-12-19T14:09:24.000Z</time>
    </trkpt>
    <trkpt lat="43.256358" lon="-1.53716">
      <ele>416</ele>
      <time>2025-12-19T14:09:41.000Z</time>
    </trkpt>
    <trkpt lat="43.256418" lon="-1.537589">
      <ele>418</ele>
      <time>2025-12-19T14:10:38.000Z</time>
    </trkpt>
    <trkpt lat="43.256568" lon="-1.53804">
      <ele>424</ele>
      <time>2025-12-19T14:12:21.000Z</time>
    </trkpt>
    <trkpt lat="43.256887" lon="-1.538586">
      <ele>430</ele>
      <time>2025-12-19T14:14:21.000Z</time>
    </trkpt>
    <trkpt lat="43.256961" lon="-1.538952">
      <ele>427</ele>
      <time>2025-12-19T14:14:53.000Z</time>
    </trkpt>
    <trkpt lat="43.256997" lon="-1.539637">
      <ele>430</ele>
      <time>2025-12-19T14:16:21.000Z</time>
    </trkpt>
    <trkpt lat="43.256965" lon="-1.539766">
      <ele>429</ele>
      <time>2025-12-19T14:16:32.000Z</time>
    </trkpt>
    <trkpt lat="43.256793" lon="-1.539984">
      <ele>424</ele>
      <time>2025-12-19T14:16:59.000Z</time>
    </trkpt>
    <trkpt lat="43.256709" lon="-1.540266">
      <ele>425</ele>
      <time>2025-12-19T14:17:35.000Z</time>
    </trkpt>
    <trkpt lat="43.256701" lon="-1.540501">
      <ele>428</ele>
      <time>2025-12-19T14:18:25.000Z</time>
    </trkpt>
    <trkpt lat="43.256877" lon="-1.541232">
      <ele>432</ele>
      <time>2025-12-19T14:20:10.000Z</time>
    </trkpt>
    <trkpt lat="43.256955" lon="-1.541933">
      <ele>431</ele>
      <time>2025-12-19T14:21:09.000Z</time>
    </trkpt>
    <trkpt lat="43.256949" lon="-1.542116">
      <ele>431</ele>
      <time>2025-12-19T14:21:24.000Z</time>
    </trkpt>
    <trkpt lat="43.256856" lon="-1.542466">
      <ele>431</ele>
      <time>2025-12-19T14:21:55.000Z</time>
    </trkpt>
    <trkpt lat="43.256861" lon="-1.542565">
      <ele>432</ele>
      <time>2025-12-19T14:22:14.000Z</time>
    </trkpt>
    <trkpt lat="43.256779" lon="-1.542515">
      <ele>432</ele>
      <time>2025-12-19T14:22:24.000Z</time>
    </trkpt>
  </trkseg>
</trk></gpx>